NATURA VA

 METAR AND TAF INFORMATION
METAR FOR LEMH
ADDS - METARS form results

(0445 UTC 16 January 2019)
Data provider http://aviationweather.gov/metar/data/
 
METAR text: LEMH 160430Z AUTO 23002KT 9999 FEW018/// 09/08 Q1020
Conditions at: LEMH (MAHON/MENORCA IS, ES) observed 0430 UTC 16 January 2019
Temperature: 9.0°C (48°F)
Dewpoint: 8.0°C (46°F) [RH = 93%]
Pressure (altimeter): 30.12 inches Hg (1020.0 mb)
Winds: from the SW (230 degrees) at 2 MPH (2 knots; 1.0 m/s)
Visibility: 6 or more miles (10+ km)
Ceiling: at least 12,000 feet AGL
Clouds: few clouds at 1800 feet AGL
Weather: no significant weather observed at this time

METAR text: LEMH 160400Z AUTO 25002KT 9999 FEW017/// SCT022/// 08/08 Q1020
Conditions at: LEMH (MAHON/MENORCA IS, ES) observed 0400 UTC 16 January 2019
Temperature: 8.0°C (46°F)
Dewpoint: 8.0°C (46°F) [RH = 100%]
Pressure (altimeter): 30.12 inches Hg (1020.0 mb)
Winds: from the WSW (250 degrees) at 2 MPH (2 knots; 1.0 m/s)
Visibility: 6 or more miles (10+ km)
Ceiling: at least 12,000 feet AGL
Clouds: few clouds at 1700 feet AGL
scattered clouds at 2200 feet AGL
Weather: no significant weather observed at this time

Forecast for: LEMH (MAHON/MENORCA IS, ES)
Text: TAF LEMH 160200Z 1603/1703 34005KT 9999 FEW015 TX15/1613Z TN05/1606Z
Forecast period: 0300 to 0600 UTC 16 January 2019
Forecast type: FROM: standard forecast or significant change
Winds: from the NNW (340 degrees) at 6 MPH (5 knots; 2.6 m/s)
Visibility: 6 or more miles 10+ km)
Ceiling: at least 12,000 feet AGL
Clouds: few clouds at 1500 feet AGL
Weather: no significant weather forecast for this period
Text: BECMG 1606/1609 19010KT
Forecast period: 0600 UTC 16 January 2019 to 0300 UTC 17 January 2019
Forecast type: BECOMING: Conditions expected to become as follows by 0900 UTC 16 January 2019
Winds: from the S (190 degrees) at 12 MPH (10 knots; 5.1 m/s)
Visibility: 6 or more miles 10+ km)
Ceiling: at least 12,000 feet AGL
Clouds: few clouds at 1500 feet AGL
Weather: no significant weather forecast for this period

 AIRPORT MAP

 RUNWAY INFORMATION
Runway 01L Runway length 7710 ft Runway width 148 ft
Runway elevation 277 ft Runway displaced threshold 0 ft Runway heading 9
Runway 19R Runway length 7710 ft Runway width 148 ft
Runway elevation 298 ft Runway displaced threshold 0 ft Runway heading 189
Runway 01R Runway length 6890 ft Runway width 148 ft
Runway elevation 272 ft Runway displaced threshold 0 ft Runway heading 9
Runway 19L Runway length 6890 ft Runway width 148 ft
Runway elevation 298 ft Runway displaced threshold 0 ft Runway heading 189

 AIRPORT FREQUENCIES
Type APP Name APP Frequency 119.65 MHZ
Type ATIS Name ATIS Frequency 112.6 MHZ
Type GND Name GND Frequency 121.75 MHZ
Type TWR Name TWR Frequency 118.2 MHZ

 AIRPORT NEAR NAVIGATION AIDS
Type VOR-DME Name Menorca Frequency 112600 KHZ
Type NDB Name Menorca Frequency 344 KHZ



Powered by Virtual Airlines Manager [v2.6.2]